createdAt,value
2022-12-04T00:00:45.812Z,101209.41
2022-12-04T00:03:12.432Z,101206.75
2022-12-04T00:05:38.985Z,101206.75
2022-12-04T00:08:05.380Z,101203.16
2022-12-04T00:10:31.786Z,101194.34
2022-12-04T00:12:58.728Z,101204.03
2022-12-04T00:15:26.453Z,101200.41
2022-12-04T00:17:53.250Z,101204.75
2022-12-04T00:20:19.917Z,101203.06
2022-12-04T00:22:46.269Z,101194.16
2022-12-04T00:25:12.606Z,101190.66
2022-12-04T00:27:38.935Z,101182.72
2022-12-04T00:30:05.951Z,101190.78
2022-12-04T00:32:32.361Z,101190.78
2022-12-04T00:34:58.777Z,101192.66
2022-12-04T00:37:25.209Z,101192.75
2022-12-04T00:39:51.638Z,101193.59
2022-12-04T00:42:18.009Z,101184.91
2022-12-04T00:44:44.345Z,101187.56
2022-12-04T00:47:10.654Z,101187.56
2022-12-04T00:49:37.105Z,101185.84
2022-12-04T00:52:03.579Z,101177.13
2022-12-04T00:54:31.459Z,101186.88
2022-12-04T00:56:57.779Z,101178.16
2022-12-04T00:59:24.093Z,101182.75
2022-12-04T01:01:50.409Z,101175.72
2022-12-04T01:04:16.782Z,101191.72
2022-12-04T01:06:43.151Z,101190.00
2022-12-04T01:09:09.612Z,101186.63
2022-12-04T01:11:36.508Z,101194.47
2022-12-04T01:14:02.825Z,101186.63
2022-12-04T01:16:33.576Z,101188.31
2022-12-04T01:19:01.062Z,101183.03
2022-12-04T01:21:27.419Z,101191.81
2022-12-04T01:23:54.405Z,101186.63
2022-12-04T01:26:21.104Z,101182.25
2022-12-04T01:28:47.446Z,101190.22
2022-12-04T01:31:16.462Z,101191.16
2022-12-04T01:33:43.574Z,101188.59
2022-12-04T01:36:16.267Z,101184.25
2022-12-04T01:38:42.935Z,101183.41
2022-12-04T01:41:11.614Z,101181.59
2022-12-04T01:43:39.195Z,101187.00
2022-12-04T01:46:07.635Z,101183.41
2022-12-04T01:48:35.527Z,101187.84
2022-12-04T01:51:18.589Z,101182.53
2022-12-04T01:53:52.904Z,101187.75
2022-12-04T01:56:24.040Z,101181.59
2022-12-04T01:58:54.849Z,101186.91
2022-12-04T02:01:21.431Z,101185.09
2022-12-04T02:03:48.461Z,101181.50
2022-12-04T02:06:14.797Z,101188.50
2022-12-04T02:08:41.382Z,101183.22
2022-12-04T02:11:35.390Z,101179.59
2022-12-04T02:14:16.525Z,101178.75
2022-12-04T02:16:55.362Z,101174.44
2022-12-04T02:19:52.974Z,101175.47
2022-12-04T02:22:38.718Z,101179.16
2022-12-04T02:25:25.674Z,101181.88
2022-12-04T02:28:02.972Z,101174.91
2022-12-04T02:30:31.393Z,101182.09
2022-12-04T02:33:07.443Z,101174.13
2022-12-04T02:35:44.586Z,101169.78
2022-12-04T02:38:35.752Z,101168.06
2022-12-04T02:41:17.105Z,101174.22
2022-12-04T02:43:47.470Z,101166.38
2022-12-04T02:46:23.731Z,101167.22
2022-12-04T02:48:53.271Z,101168.28
2022-12-04T02:51:21.582Z,101166.59
2022-12-04T02:53:53.415Z,101172.72
2022-12-04T02:56:25.057Z,101160.31
2022-12-04T02:59:00.689Z,101160.41
2022-12-04T03:01:29.754Z,101158.44
2022-12-04T03:04:05.093Z,101162.00
2022-12-04T03:06:35.894Z,101164.66
2022-12-04T03:09:10.345Z,101168.28
2022-12-04T03:11:40.162Z,101163.06
2022-12-04T03:14:19.191Z,101156.91
2022-12-04T03:16:48.613Z,101158.63
2022-12-04T03:19:29.599Z,101153.22
2022-12-04T03:22:02.759Z,101168.28
2022-12-04T03:24:42.100Z,101165.63
2022-12-04T03:27:11.174Z,101163.81
2022-12-04T03:29:58.994Z,101162.97
2022-12-04T03:32:31.451Z,101164.66
2022-12-04T03:35:21.785Z,101162.97
2022-12-04T03:37:56.940Z,101167.31
2022-12-04T03:40:36.090Z,101166.47
2022-12-04T03:43:15.542Z,101173.56
2022-12-04T03:45:56.337Z,101167.31
2022-12-04T03:48:43.736Z,101162.97
2022-12-04T03:51:17.186Z,101176.13
2022-12-04T03:53:55.387Z,101171.69
2022-12-04T03:56:26.772Z,101171.56
2022-12-04T03:58:59.151Z,101173.28
2022-12-04T04:01:32.170Z,101163.44
2022-12-04T04:04:01.907Z,101165.16
2022-12-04T04:06:36.562Z,101160.69
2022-12-04T04:09:08.778Z,101165.91
2022-12-04T04:11:42.588Z,101158.69
2022-12-04T04:14:32.810Z,101156.91
2022-12-04T04:17:36.478Z,101164.75
2022-12-04T04:20:27.979Z,101160.31
2022-12-04T04:23:16.669Z,101166.47
2022-12-04T04:25:45.426Z,101159.47
2022-12-04T04:28:37.899Z,101163.91
2022-12-04T04:31:30.506Z,101168.25
2022-12-04T04:34:12.711Z,101167.41
2022-12-04T04:36:54.183Z,101165.59
2022-12-04T04:39:36.566Z,101161.25
2022-12-04T04:42:14.146Z,101170.16
2022-12-04T04:45:08.333Z,101171.09
2022-12-04T04:47:44.802Z,101167.53
2022-12-04T04:50:12.589Z,101178.97
2022-12-04T04:52:43.840Z,101175.47
2022-12-04T04:55:10.832Z,101178.84
2022-12-04T04:57:37.469Z,101177.91
2022-12-04T05:00:16.157Z,101193.63
2022-12-04T05:02:43.571Z,101189.16
2022-12-04T05:05:10.209Z,101184.53
2022-12-04T05:07:36.548Z,101172.88
2022-12-04T05:10:03.371Z,101174.59
2022-12-04T05:12:29.721Z,101175.25
2022-12-04T05:14:56.036Z,101173.34
2022-12-04T05:17:22.641Z,101179.31
2022-12-04T05:19:56.230Z,101173.16
2022-12-04T05:22:26.650Z,101178.25
2022-12-04T05:24:53.841Z,101184.31
2022-12-04T05:27:21.062Z,101176.28
2022-12-04T05:29:47.817Z,101177.97
2022-12-04T05:32:14.752Z,101177.88
2022-12-04T05:34:41.131Z,101176.94
2022-12-04T05:37:07.452Z,101182.16
2022-12-04T05:39:34.568Z,101189.97
2022-12-04T05:42:01.011Z,101186.41
2022-12-04T05:44:27.316Z,101182.78
2022-12-04T05:46:53.761Z,101188.00
2022-12-04T05:49:20.157Z,101182.72
2022-12-04T05:51:46.495Z,101186.09
2022-12-04T05:54:13.130Z,101178.13
2022-12-04T05:56:39.486Z,101175.47
2022-12-04T05:59:05.830Z,101178.13
2022-12-04T06:01:32.318Z,101172.09
2022-12-04T06:03:59.207Z,101168.56
2022-12-04T06:06:26.256Z,101161.59
2022-12-04T06:08:56.274Z,101165.19
2022-12-04T06:11:28.695Z,101169.63
2022-12-04T06:13:56.471Z,101160.81
2022-12-04T06:16:25.440Z,101161.59
2022-12-04T06:18:53.675Z,101157.97
2022-12-04T06:21:21.818Z,101167.53
2022-12-04T06:23:48.764Z,101167.44
2022-12-04T06:26:15.462Z,101159.50
2022-12-04T06:28:41.847Z,101162.91
2022-12-04T06:31:11.823Z,101160.13
2022-12-04T06:33:38.870Z,101166.31
2022-12-04T06:36:08.388Z,101160.03
2022-12-04T06:38:35.367Z,101166.19
2022-12-04T06:41:09.754Z,101162.50
2022-12-04T06:43:36.250Z,101154.63
2022-12-04T06:46:05.897Z,101150.19
2022-12-04T06:48:33.315Z,101163.34
2022-12-04T06:51:00.400Z,101165.91
2022-12-04T06:53:30.408Z,101157.19
2022-12-04T06:55:59.447Z,101160.69
2022-12-04T06:58:26.953Z,101160.69
2022-12-04T07:00:53.946Z,101160.81
2022-12-04T07:03:21.115Z,101166.09
2022-12-04T07:05:47.453Z,101161.72
2022-12-04T07:08:15.491Z,101175.00
2022-12-04T07:10:42.072Z,101175.00
2022-12-04T07:13:09.311Z,101176.78
2022-12-04T07:15:37.173Z,101182.09
2022-12-04T07:18:05.032Z,101182.09
2022-12-04T07:20:32.029Z,101179.44
2022-12-04T07:23:01.520Z,101185.59
2022-12-04T07:25:31.979Z,101181.13
2022-12-04T07:27:58.302Z,101182.94
2022-12-04T07:30:24.639Z,101185.59
2022-12-04T07:32:50.974Z,101191.75
2022-12-04T07:35:17.460Z,101183.91
2022-12-04T07:37:43.859Z,101187.53
2022-12-04T07:40:10.748Z,101184.88
2022-12-04T07:42:37.065Z,101186.75
2022-12-04T07:45:03.670Z,101191.09
2022-12-04T07:47:30.024Z,101187.53
2022-12-04T07:49:56.504Z,101189.22
2022-12-04T07:52:23.174Z,101190.91
2022-12-04T07:54:49.562Z,101183.72
2022-12-04T07:57:15.883Z,101199.63
2022-12-04T07:59:42.200Z,101192.41
2022-12-04T08:02:08.871Z,101194.88
2022-12-04T08:04:36.818Z,101197.44
2022-12-04T08:07:03.293Z,101197.31
2022-12-04T08:09:29.645Z,101190.97
2022-12-04T08:11:55.987Z,101188.22
2022-12-04T08:14:22.311Z,101185.47
2022-12-04T08:16:52.856Z,101191.53
2022-12-04T08:19:19.545Z,101185.25
2022-12-04T08:21:45.928Z,101190.47
2022-12-04T08:24:12.503Z,101186.97
2022-12-04T08:26:38.867Z,101188.59
2022-12-04T08:29:05.964Z,101186.69
2022-12-04T08:31:34.239Z,101180.41
2022-12-04T08:34:03.304Z,101183.81
2022-12-04T08:36:30.071Z,101182.78
2022-12-04T08:38:56.485Z,101187.97
2022-12-04T08:41:26.007Z,101188.72
2022-12-04T08:43:57.687Z,101186.81
2022-12-04T08:46:25.667Z,101169.94
2022-12-04T08:48:52.423Z,101176.00
2022-12-04T08:51:24.386Z,101183.00
2022-12-04T08:53:55.554Z,101176.75
2022-12-04T08:56:22.341Z,101190.03
2022-12-04T08:58:48.938Z,101182.81
2022-12-04T09:01:15.669Z,101195.13
2022-12-04T09:03:42.460Z,101200.34
2022-12-04T09:06:11.214Z,101207.25
2022-12-04T09:08:38.101Z,101188.69
2022-12-04T09:11:06.474Z,101203.63
2022-12-04T09:13:33.638Z,101190.38
2022-12-04T09:16:00.102Z,101204.47
2022-12-04T09:18:26.513Z,101202.69
2022-12-04T09:20:57.461Z,101194.63
2022-12-04T09:23:25.178Z,101205.25
2022-12-04T09:25:51.552Z,101205.25
2022-12-04T09:28:18.249Z,101197.19
2022-12-04T09:30:44.862Z,101198.88
2022-12-04T09:33:11.369Z,101204.19
2022-12-04T09:35:40.509Z,101196.09
2022-12-04T09:38:06.821Z,101187.31
2022-12-04T09:40:46.225Z,101193.44
2022-12-04T09:43:28.991Z,101193.56
2022-12-04T09:46:01.369Z,101195.25
2022-12-04T09:48:35.689Z,101206.72
2022-12-04T09:51:05.440Z,101203.13
2022-12-04T09:54:03.115Z,101206.63
2022-12-04T09:56:32.081Z,101203.00
2022-12-04T09:59:06.754Z,101205.59
2022-12-04T10:01:39.340Z,101200.19
2022-12-04T10:04:06.620Z,101206.44
2022-12-04T10:06:42.110Z,101204.53
2022-12-04T10:09:21.665Z,101199.22
2022-12-04T10:12:15.283Z,101198.25
2022-12-04T10:15:07.489Z,101197.31
2022-12-04T10:17:49.598Z,101193.69
2022-12-04T10:20:31.184Z,101190.13
2022-12-04T10:23:00.545Z,101189.16
2022-12-04T10:25:28.689Z,101181.94
2022-12-04T10:28:01.481Z,101176.28
2022-12-04T10:30:34.486Z,101179.72
2022-12-04T10:33:11.318Z,101178.66
2022-12-04T10:35:37.866Z,101179.50
2022-12-04T10:38:10.688Z,101176.75
2022-12-04T10:40:57.690Z,101174.84
2022-12-04T10:43:43.992Z,101174.84
2022-12-04T10:46:15.314Z,101182.69
2022-12-04T10:48:46.619Z,101179.94
2022-12-04T10:51:17.893Z,101177.19
2022-12-04T10:53:45.713Z,101178.03
2022-12-04T10:56:19.658Z,101178.03
2022-12-04T10:59:03.898Z,101185.88
2022-12-04T11:01:32.404Z,101176.09
2022-12-04T11:04:18.435Z,101175.81
2022-12-04T11:06:45.070Z,101165.94
2022-12-04T11:09:23.518Z,101165.72
2022-12-04T11:11:50.924Z,101169.22
2022-12-04T11:14:23.075Z,101166.47
2022-12-04T11:17:01.274Z,101167.31
2022-12-04T11:19:31.000Z,101163.72
2022-12-04T11:22:04.311Z,101158.28
2022-12-04T11:24:34.654Z,101164.44
2022-12-04T11:27:03.033Z,101164.44
2022-12-04T11:29:35.505Z,101168.69
2022-12-04T11:32:07.565Z,101161.56
2022-12-04T11:34:41.393Z,101169.34
2022-12-04T11:37:20.867Z,101172.94
2022-12-04T11:39:47.531Z,101155.19
2022-12-04T11:42:13.779Z,101156.06
2022-12-04T11:44:50.558Z,101148.94
2022-12-04T11:47:18.651Z,101153.41
2022-12-04T11:49:46.001Z,101138.53
2022-12-04T11:52:38.100Z,101134.28
2022-12-04T11:55:15.059Z,101132.78
2022-12-04T11:57:48.421Z,101131.09
2022-12-04T12:00:22.621Z,101113.56
2022-12-04T12:03:30.906Z,101112.81
2022-12-04T12:06:12.217Z,101102.22
2022-12-04T12:08:56.451Z,101104.00
2022-12-04T12:11:34.403Z,101098.72
2022-12-04T12:14:41.083Z,101096.28
2022-12-04T12:17:25.398Z,101101.66
2022-12-04T12:20:20.203Z,101097.34
2022-12-04T12:22:58.674Z,101100.06
2022-12-04T12:25:36.209Z,101104.63
2022-12-04T12:28:08.209Z,101106.44
2022-12-04T12:30:53.419Z,101104.63
2022-12-04T12:33:25.201Z,101103.78
2022-12-04T12:36:21.470Z,101106.34
2022-12-04T12:38:54.426Z,101093.94
2022-12-04T12:41:38.701Z,101099.22
2022-12-04T12:44:12.647Z,101109.72
2022-12-04T12:46:53.473Z,101099.22
2022-12-04T12:49:29.784Z,101088.72
2022-12-04T12:52:17.325Z,101087.88
2022-12-04T12:54:43.809Z,101082.69
2022-12-04T12:57:28.927Z,101079.06
2022-12-04T13:00:00.108Z,101086.94
2022-12-04T13:03:00.057Z,101078.00
2022-12-04T13:05:34.836Z,101088.50
2022-12-04T13:08:16.258Z,101078.63
2022-12-04T13:10:47.705Z,101080.34
2022-12-04T13:13:26.997Z,101075.03
2022-12-04T13:16:08.015Z,101074.06
2022-12-04T13:18:40.670Z,101068.84
2022-12-04T13:21:08.802Z,101066.31
2022-12-04T13:24:05.546Z,101071.63
2022-12-04T13:26:58.271Z,101062.06
2022-12-04T13:29:47.254Z,101054.94
2022-12-04T13:33:08.544Z,101046.13
2022-12-04T13:35:58.159Z,101053.25
2022-12-04T13:38:58.242Z,101052.41
2022-12-04T13:41:27.484Z,101052.50
2022-12-04T13:43:55.009Z,101049.94
2022-12-04T13:46:28.465Z,101056.13
2022-12-04T13:48:55.431Z,101053.47
2022-12-04T13:51:38.078Z,101052.50
2022-12-04T13:54:10.449Z,101054.19
2022-12-04T13:56:38.411Z,101051.53
2022-12-04T13:59:19.488Z,101052.28
2022-12-04T14:01:48.581Z,101047.94
2022-12-04T14:04:40.718Z,101054.09
2022-12-04T14:07:07.265Z,101053.25
2022-12-04T14:09:43.714Z,101054.19
2022-12-04T14:12:13.932Z,101047.19
2022-12-04T14:14:52.367Z,101043.78
2022-12-04T14:17:25.353Z,101040.38
2022-12-04T14:20:00.768Z,101041.34
2022-12-04T14:22:35.488Z,101039.66
2022-12-04T14:25:23.136Z,101040.59
2022-12-04T14:27:53.445Z,101035.28
2022-12-04T14:30:29.692Z,101041.56
2022-12-04T14:33:17.758Z,101046.13
2022-12-04T14:35:50.133Z,101049.75
2022-12-04T14:38:22.221Z,101056.97
2022-12-04T14:40:52.305Z,101050.81
2022-12-04T14:43:24.496Z,101065.03
2022-12-04T14:46:00.229Z,101060.56
2022-12-04T14:48:32.653Z,101068.22
2022-12-04T14:51:10.849Z,101072.69
2022-12-04T14:53:54.539Z,101080.75
2022-12-04T14:56:45.473Z,101086.03
2022-12-04T14:59:17.400Z,101087.09
2022-12-04T15:01:47.120Z,101092.41
2022-12-04T15:04:19.806Z,101103.03
2022-12-04T15:06:48.962Z,101104.00
2022-12-04T15:09:37.771Z,101103.91
2022-12-04T15:12:34.141Z,101109.94
2022-12-04T15:15:27.485Z,101117.81
2022-12-04T15:18:26.250Z,101114.19
2022-12-04T15:20:59.878Z,101111.66
2022-12-04T15:23:35.507Z,101114.31
2022-12-04T15:26:03.535Z,101104.44
2022-12-04T15:28:57.387Z,101111.75
2022-12-04T15:31:28.031Z,101101.34
2022-12-04T15:34:00.488Z,101108.78
2022-12-04T15:36:33.043Z,101105.50
2022-12-04T15:39:00.178Z,101092.44
2022-12-04T15:41:31.230Z,101093.50
2022-12-04T15:43:58.119Z,101087.44
2022-12-04T15:46:36.161Z,101089.31
2022-12-04T15:49:20.352Z,101088.56
2022-12-04T15:51:48.181Z,101084.16
2022-12-04T15:54:23.858Z,101080.63
2022-12-04T15:56:57.375Z,101084.03
2022-12-04T15:59:27.421Z,101083.19
2022-12-04T16:01:54.133Z,101083.28
2022-12-04T16:04:22.426Z,101082.53
2022-12-04T16:06:51.514Z,101091.44
2022-12-04T16:09:17.749Z,101088.91
2022-12-04T16:11:44.374Z,101086.25
2022-12-04T16:14:15.241Z,101079.13
2022-12-04T16:16:50.316Z,101077.41
2022-12-04T16:19:31.719Z,101082.63
2022-12-04T16:21:58.327Z,101088.78
2022-12-04T16:24:25.347Z,101080.94
2022-12-04T16:26:54.865Z,101088.78
2022-12-04T16:29:22.225Z,101088.78
2022-12-04T16:31:49.115Z,101088.69
2022-12-04T16:34:15.563Z,101104.50
2022-12-04T16:36:41.997Z,101100.91
2022-12-04T16:39:08.370Z,101087.53
2022-12-04T16:41:34.753Z,101081.38
2022-12-04T16:44:01.832Z,101090.09
2022-12-04T16:46:29.646Z,101086.47
2022-12-04T16:48:56.501Z,101099.72
2022-12-04T16:51:25.376Z,101094.41
2022-12-04T16:53:54.519Z,101097.91
2022-12-04T16:56:21.416Z,101093.50
2022-12-04T16:58:47.938Z,101098.78
2022-12-04T17:01:27.602Z,101093.28
2022-12-04T17:03:54.003Z,101099.41
2022-12-04T17:06:20.754Z,101094.97
2022-12-04T17:08:47.274Z,101081.59
2022-12-04T17:11:15.663Z,101098.38
2022-12-04T17:13:42.542Z,101100.06
2022-12-04T17:16:11.252Z,101111.53
2022-12-04T17:18:40.428Z,101110.50
2022-12-04T17:21:08.318Z,101112.19
2022-12-04T17:23:35.298Z,101106.88
2022-12-04T17:26:07.046Z,101108.47
2022-12-04T17:28:34.447Z,101113.88
2022-12-04T17:31:02.511Z,101116.44
2022-12-04T17:33:28.963Z,101116.44
2022-12-04T17:35:55.985Z,101119.91
2022-12-04T17:38:22.310Z,101117.28
2022-12-04T17:41:01.954Z,101113.78
2022-12-04T17:43:29.683Z,101130.53
2022-12-04T17:45:56.584Z,101125.22
2022-12-04T17:48:24.272Z,101124.38
2022-12-04T17:50:50.889Z,101124.25
2022-12-04T17:53:17.400Z,101122.59
2022-12-04T17:55:43.787Z,101117.28
2022-12-04T17:58:10.101Z,101125.22
2022-12-04T18:00:36.877Z,101126.00
2022-12-04T18:03:03.391Z,101124.25
2022-12-04T18:05:30.539Z,101121.53
2022-12-04T18:07:56.937Z,101120.56
2022-12-04T18:10:24.291Z,101121.44
2022-12-04T18:12:50.641Z,101136.38
2022-12-04T18:15:16.968Z,101125.78
2022-12-04T18:17:43.344Z,101123.97
2022-12-04T18:20:10.370Z,101126.63
2022-12-04T18:22:37.102Z,101135.34
2022-12-04T18:25:03.663Z,101126.41
2022-12-04T18:27:30.118Z,101119.31
2022-12-04T18:29:56.679Z,101124.50
2022-12-04T18:32:23.251Z,101119.19
2022-12-04T18:34:49.630Z,101127.06
2022-12-04T18:37:15.941Z,101118.03
2022-12-04T18:39:42.277Z,101125.88
2022-12-04T18:42:08.596Z,101123.97
2022-12-04T18:44:34.940Z,101115.91
2022-12-04T18:47:01.274Z,101114.09
2022-12-04T18:49:27.626Z,101120.16
2022-12-04T18:51:53.930Z,101117.50
2022-12-04T18:54:22.998Z,101120.88
2022-12-04T18:56:50.480Z,101122.59
2022-12-04T18:59:25.749Z,101129.59
2022-12-04T19:01:53.632Z,101136.63
2022-12-04T19:04:22.538Z,101133.00
2022-12-04T19:06:54.802Z,101128.53
2022-12-04T19:09:40.987Z,101138.22
2022-12-04T19:12:11.499Z,101131.09
2022-12-04T19:14:39.580Z,101127.47
2022-12-04T19:17:06.038Z,101130.03
2022-12-04T19:19:32.448Z,101116.63
2022-12-04T19:21:59.071Z,101122.69
2022-12-04T19:24:25.775Z,101131.41
2022-12-04T19:26:54.201Z,101114.50
2022-12-04T19:29:20.525Z,101116.22
2022-12-04T19:31:46.991Z,101115.25
2022-12-04T19:34:13.380Z,101113.44
2022-12-04T19:36:41.112Z,101113.44
2022-12-04T19:39:07.501Z,101115.16
2022-12-04T19:41:35.143Z,101116.00
2022-12-04T19:44:07.847Z,101110.69
2022-12-04T19:46:41.216Z,101109.72
2022-12-04T19:49:08.102Z,101114.09
2022-12-04T19:51:37.975Z,101104.31
2022-12-04T19:54:06.185Z,101095.50
2022-12-04T19:56:34.106Z,101095.38
2022-12-04T19:59:03.065Z,101101.53
2022-12-04T20:01:32.270Z,101090.06
2022-12-04T20:04:02.491Z,101098.88
2022-12-04T20:06:29.979Z,101094.53
2022-12-04T20:09:02.580Z,101091.88
2022-12-04T20:11:30.284Z,101091.13
2022-12-04T20:13:59.585Z,101099.94
2022-12-04T20:16:28.203Z,101090.28
2022-12-04T20:18:54.912Z,101086.78
2022-12-04T20:21:25.495Z,101100.06
2022-12-04T20:23:53.858Z,101094.75
2022-12-04T20:26:26.051Z,101094.75
2022-12-04T20:28:55.084Z,101095.59
2022-12-04T20:31:33.526Z,101101.75
2022-12-04T20:34:02.598Z,101099.94
2022-12-04T20:36:30.445Z,101100.06
2022-12-04T20:38:58.242Z,101099.09
2022-12-04T20:41:26.930Z,101091.13
2022-12-04T20:43:53.302Z,101086.78
2022-12-04T20:46:20.858Z,101081.34
2022-12-04T20:48:49.287Z,101087.53
2022-12-04T20:51:37.535Z,101083.91
2022-12-04T20:54:04.488Z,101084.00
2022-12-04T20:56:34.224Z,101085.72
2022-12-04T20:59:03.604Z,101084.88
2022-12-04T21:01:30.971Z,101091.13
2022-12-04T21:03:59.111Z,101085.81
2022-12-04T21:06:34.441Z,101079.66
2022-12-04T21:09:05.739Z,101080.50
2022-12-04T21:11:35.370Z,101083.16
2022-12-04T21:14:22.155Z,101091.97
2022-12-04T21:16:49.185Z,101075.19
2022-12-04T21:19:17.936Z,101087.53
2022-12-04T21:21:44.506Z,101089.22
2022-12-04T21:24:13.437Z,101090.06
2022-12-04T21:26:40.144Z,101093.69
2022-12-04T21:29:07.699Z,101082.94
2022-12-04T21:31:35.804Z,101068.81
2022-12-04T21:34:05.256Z,101088.25
2022-12-04T21:36:31.795Z,101074.97
2022-12-04T21:38:58.316Z,101074.25
2022-12-04T21:41:43.270Z,101080.50
2022-12-04T21:44:14.882Z,101082.22
2022-12-04T21:46:41.408Z,101067.34
2022-12-04T21:49:07.895Z,101072.66
2022-12-04T21:54:21.242Z,101079.66
2022-12-04T21:56:47.777Z,101064.56
2022-12-04T21:59:14.506Z,101063.81
2022-12-04T22:01:41.517Z,101071.78
2022-12-04T22:04:07.985Z,101074.44
2022-12-04T22:06:36.116Z,101065.63
2022-12-04T22:09:06.121Z,101060.31
2022-12-04T22:11:32.547Z,101061.16
2022-12-04T22:13:59.018Z,101061.16
2022-12-04T22:16:30.383Z,101055.00
2022-12-04T22:18:58.246Z,101063.81
2022-12-04T22:21:25.269Z,101068.28
2022-12-04T22:23:59.440Z,101059.50
2022-12-04T22:26:27.472Z,101051.50
2022-12-04T22:28:54.417Z,101057.81
2022-12-04T22:31:23.333Z,101065.63
2022-12-04T22:33:51.455Z,101072.84
2022-12-04T22:36:20.523Z,101075.41
2022-12-04T22:39:08.058Z,101067.44
2022-12-04T22:41:34.393Z,101071.78
2022-12-04T22:44:00.827Z,101062.03
2022-12-04T22:46:27.336Z,101078.81
2022-12-04T22:48:53.774Z,101063.72
2022-12-04T22:51:21.695Z,101069.88
2022-12-04T22:53:53.108Z,101064.47
2022-12-04T22:56:24.864Z,101064.34
2022-12-04T22:58:52.160Z,101066.06
2022-12-04T23:01:30.906Z,101067.75
2022-12-04T23:03:57.989Z,101075.72
2022-12-04T23:06:27.482Z,101065.94
2022-12-04T23:08:58.874Z,101076.47
2022-12-04T23:11:25.720Z,101065.00
2022-12-04T23:13:54.130Z,101071.16
2022-12-04T23:16:22.418Z,101075.63
2022-12-04T23:18:48.967Z,101078.16
2022-12-04T23:21:16.773Z,101074.56
2022-12-04T23:23:44.466Z,101086.78
2022-12-04T23:26:17.674Z,101084.97
2022-12-04T23:28:44.124Z,101080.50
2022-12-04T23:31:11.031Z,101079.53
2022-12-04T23:33:38.596Z,101075.09
2022-12-04T23:36:06.553Z,101073.16
2022-12-04T23:38:34.793Z,101077.53
2022-12-04T23:41:22.707Z,101072.22
2022-12-04T23:43:50.442Z,101069.56
2022-12-04T23:46:19.696Z,101067.72
2022-12-04T23:48:46.819Z,101061.56
2022-12-04T23:51:17.811Z,101072.94
2022-12-04T23:53:45.000Z,101068.56
2022-12-04T23:56:12.807Z,101059.66
2022-12-04T23:58:40.211Z,101068.56
